Academy, South Dakota
Current Conditions -  °F | °C
As of 10:35 PM on Friday 24 Oct 2014 (Local Time) from K9V9 Reporting Station
Clear Clear  
Wind Chill: 14°   Ceiling: Unl
Heat Index: 14°   Visibility: 10mi
Dew Point:   Wind: 0mph
Humidity: 46%   Direction: NA
Pressure: 30.03"   Gusts: NA
Location:  43.4255°N, 98.9806°W
Report Text: K9V9 250335Z AUTO 00000KT 10SM CLR 14/03 A3003 RMK AO2 T01390025
Loading
Personal Weather Stations






























Interactive Weather Map
Tropical Storm Tracking
New forecast layout! Learn more

10-Day Weather Forecast

Advertisements
Track Severe Weather on mobile